sensor_id;sensor_type;location;lat;lon;timestamp;P1;durP1;ratioP1;P2;durP2;ratioP2
37905;SDS011;23739;51.448;6.674;2023-12-28T00:01:58;1.73;;;1.40;;
37905;SDS011;23739;51.448;6.674;2023-12-28T00:04:24;2.15;;;1.52;;
37905;SDS011;23739;51.448;6.674;2023-12-28T00:06:50;4.45;;;2.20;;
37905;SDS011;23739;51.448;6.674;2023-12-28T00:09:16;2.75;;;1.50;;
37905;SDS011;23739;51.448;6.674;2023-12-28T00:11:42;4.72;;;1.35;;
37905;SDS011;23739;51.448;6.674;2023-12-28T00:14:08;2.53;;;1.52;;
37905;SDS011;23739;51.448;6.674;2023-12-28T00:16:34;2.30;;;1.63;;
37905;SDS011;23739;51.448;6.674;2023-12-28T00:19:02;2.95;;;1.60;;
37905;SDS011;23739;51.448;6.674;2023-12-28T00:21:29;2.80;;;1.08;;
37905;SDS011;23739;51.448;6.674;2023-12-28T00:23:55;2.85;;;1.73;;
37905;SDS011;23739;51.448;6.674;2023-12-28T00:26:21;3.33;;;1.58;;
37905;SDS011;23739;51.448;6.674;2023-12-28T00:28:47;2.25;;;1.80;;
37905;SDS011;23739;51.448;6.674;2023-12-28T00:31:13;2.67;;;1.63;;
37905;SDS011;23739;51.448;6.674;2023-12-28T00:33:39;2.00;;;1.55;;
37905;SDS011;23739;51.448;6.674;2023-12-28T00:36:06;2.45;;;1.50;;
37905;SDS011;23739;51.448;6.674;2023-12-28T00:38:32;3.42;;;1.85;;
37905;SDS011;23739;51.448;6.674;2023-12-28T00:40:58;3.58;;;1.38;;
37905;SDS011;23739;51.448;6.674;2023-12-28T00:43:24;2.50;;;1.60;;
37905;SDS011;23739;51.448;6.674;2023-12-28T00:45:50;1.65;;;1.52;;
37905;SDS011;23739;51.448;6.674;2023-12-28T00:48:16;4.05;;;1.45;;
37905;SDS011;23739;51.448;6.674;2023-12-28T00:50:42;3.30;;;1.80;;
37905;SDS011;23739;51.448;6.674;2023-12-28T00:53:08;3.72;;;1.75;;
37905;SDS011;23739;51.448;6.674;2023-12-28T00:55:34;2.28;;;1.50;;
37905;SDS011;23739;51.448;6.674;2023-12-28T00:58:00;2.70;;;1.70;;
37905;SDS011;23739;51.448;6.674;2023-12-28T01:00:26;3.38;;;1.65;;
37905;SDS011;23739;51.448;6.674;2023-12-28T01:02:53;2.63;;;1.95;;
37905;SDS011;23739;51.448;6.674;2023-12-28T01:05:20;3.33;;;1.30;;
37905;SDS011;23739;51.448;6.674;2023-12-28T01:07:46;1.77;;;1.52;;
37905;SDS011;23739;51.448;6.674;2023-12-28T01:10:12;3.28;;;1.67;;
37905;SDS011;23739;51.448;6.674;2023-12-28T01:12:38;2.47;;;1.40;;
37905;SDS011;23739;51.448;6.674;2023-12-28T01:15:05;4.18;;;1.55;;
37905;SDS011;23739;51.448;6.674;2023-12-28T01:17:32;3.83;;;1.70;;
37905;SDS011;23739;51.448;6.674;2023-12-28T01:19:58;3.28;;;1.63;;
37905;SDS011;23739;51.448;6.674;2023-12-28T01:22:24;1.75;;;1.40;;
37905;SDS011;23739;51.448;6.674;2023-12-28T01:24:51;3.13;;;1.63;;
37905;SDS011;23739;51.448;6.674;2023-12-28T01:27:17;2.83;;;1.52;;
37905;SDS011;23739;51.448;6.674;2023-12-28T01:29:43;2.22;;;1.30;;
37905;SDS011;23739;51.448;6.674;2023-12-28T01:32:09;3.40;;;1.48;;
37905;SDS011;23739;51.448;6.674;2023-12-28T01:34:35;1.80;;;1.40;;
37905;SDS011;23739;51.448;6.674;2023-12-28T01:37:01;4.25;;;1.75;;
37905;SDS011;23739;51.448;6.674;2023-12-28T01:39:27;1.98;;;1.42;;
37905;SDS011;23739;51.448;6.674;2023-12-28T01:41:53;2.00;;;1.35;;
37905;SDS011;23739;51.448;6.674;2023-12-28T01:44:20;2.08;;;1.40;;
37905;SDS011;23739;51.448;6.674;2023-12-28T01:46:46;2.05;;;1.42;;
37905;SDS011;23739;51.448;6.674;2023-12-28T01:49:12;2.65;;;1.70;;
37905;SDS011;23739;51.448;6.674;2023-12-28T01:51:38;4.55;;;1.75;;
37905;SDS011;23739;51.448;6.674;2023-12-28T01:54:05;4.45;;;1.40;;
37905;SDS011;23739;51.448;6.674;2023-12-28T01:56:31;2.47;;;1.45;;
37905;SDS011;23739;51.448;6.674;2023-12-28T01:58:57;5.57;;;2.00;;
37905;SDS011;23739;51.448;6.674;2023-12-28T02:01:23;1.70;;;1.27;;
37905;SDS011;23739;51.448;6.674;2023-12-28T02:03:51;2.38;;;1.50;;
37905;SDS011;23739;51.448;6.674;2023-12-28T02:06:17;3.33;;;1.58;;
37905;SDS011;23739;51.448;6.674;2023-12-28T02:08:44;2.10;;;1.50;;
37905;SDS011;23739;51.448;6.674;2023-12-28T02:11:10;2.72;;;1.60;;
37905;SDS011;23739;51.448;6.674;2023-12-28T02:13:36;2.17;;;1.70;;
37905;SDS011;23739;51.448;6.674;2023-12-28T02:16:46;3.08;;;1.90;;
37905;SDS011;23739;51.448;6.674;2023-12-28T02:18:52;2.13;;;1.25;;
37905;SDS011;23739;51.448;6.674;2023-12-28T02:21:20;2.42;;;1.63;;
37905;SDS011;23739;51.448;6.674;2023-12-28T02:23:49;2.47;;;1.67;;
37905;SDS011;23739;51.448;6.674;2023-12-28T02:26:18;3.00;;;1.70;;
37905;SDS011;23739;51.448;6.674;2023-12-28T02:28:44;3.85;;;1.60;;
37905;SDS011;23739;51.448;6.674;2023-12-28T02:31:19;4.38;;;1.60;;
37905;SDS011;23739;51.448;6.674;2023-12-28T02:33:48;3.67;;;1.77;;
37905;SDS011;23739;51.448;6.674;2023-12-28T02:36:16;2.97;;;1.77;;
37905;SDS011;23739;51.448;6.674;2023-12-28T02:38:44;5.15;;;2.28;;
37905;SDS011;23739;51.448;6.674;2023-12-28T02:41:11;2.38;;;1.90;;
37905;SDS011;23739;51.448;6.674;2023-12-28T02:43:37;4.25;;;1.55;;
37905;SDS011;23739;51.448;6.674;2023-12-28T02:46:03;6.88;;;2.88;;
37905;SDS011;23739;51.448;6.674;2023-12-28T02:48:29;4.00;;;1.90;;
37905;SDS011;23739;51.448;6.674;2023-12-28T02:50:55;3.90;;;2.28;;
37905;SDS011;23739;51.448;6.674;2023-12-28T02:53:21;4.38;;;1.75;;
37905;SDS011;23739;51.448;6.674;2023-12-28T02:55:47;1.85;;;1.67;;
37905;SDS011;23739;51.448;6.674;2023-12-28T02:58:13;2.90;;;1.60;;
37905;SDS011;23739;51.448;6.674;2023-12-28T03:00:39;3.95;;;1.90;;
37905;SDS011;23739;51.448;6.674;2023-12-28T03:03:05;8.05;;;2.33;;
37905;SDS011;23739;51.448;6.674;2023-12-28T03:05:31;6.60;;;1.70;;
37905;SDS011;23739;51.448;6.674;2023-12-28T03:07:57;4.15;;;1.65;;
37905;SDS011;23739;51.448;6.674;2023-12-28T03:10:24;5.22;;;2.00;;
37905;SDS011;23739;51.448;6.674;2023-12-28T03:12:50;3.78;;;1.85;;
37905;SDS011;23739;51.448;6.674;2023-12-28T03:15:16;3.78;;;2.03;;
37905;SDS011;23739;51.448;6.674;2023-12-28T03:17:42;4.07;;;1.90;;
37905;SDS011;23739;51.448;6.674;2023-12-28T03:20:08;3.65;;;1.80;;
37905;SDS011;23739;51.448;6.674;2023-12-28T03:22:35;4.70;;;2.08;;
37905;SDS011;23739;51.448;6.674;2023-12-28T03:25:01;3.15;;;1.92;;
37905;SDS011;23739;51.448;6.674;2023-12-28T03:27:27;3.08;;;2.03;;
37905;SDS011;23739;51.448;6.674;2023-12-28T03:29:53;3.67;;;2.00;;
37905;SDS011;23739;51.448;6.674;2023-12-28T03:32:19;3.17;;;1.80;;
37905;SDS011;23739;51.448;6.674;2023-12-28T03:34:45;2.67;;;1.88;;
37905;SDS011;23739;51.448;6.674;2023-12-28T03:37:11;3.67;;;2.58;;
37905;SDS011;23739;51.448;6.674;2023-12-28T03:39:38;3.42;;;1.60;;
37905;SDS011;23739;51.448;6.674;2023-12-28T03:42:04;2.83;;;1.92;;
37905;SDS011;23739;51.448;6.674;2023-12-28T03:44:30;3.35;;;2.05;;
37905;SDS011;23739;51.448;6.674;2023-12-28T03:46:56;3.15;;;1.77;;
37905;SDS011;23739;51.448;6.674;2023-12-28T03:49:22;3.25;;;1.83;;
37905;SDS011;23739;51.448;6.674;2023-12-28T03:51:49;3.60;;;2.67;;
37905;SDS011;23739;51.448;6.674;2023-12-28T03:54:18;5.72;;;1.80;;
37905;SDS011;23739;51.448;6.674;2023-12-28T03:56:48;7.45;;;2.38;;
37905;SDS011;23739;51.448;6.674;2023-12-28T03:59:14;4.72;;;2.65;;
37905;SDS011;23739;51.448;6.674;2023-12-28T04:01:40;4.05;;;2.22;;
37905;SDS011;23739;51.448;6.674;2023-12-28T04:04:06;5.30;;;2.17;;
37905;SDS011;23739;51.448;6.674;2023-12-28T04:06:33;3.05;;;2.10;;
37905;SDS011;23739;51.448;6.674;2023-12-28T04:08:59;3.15;;;1.80;;
37905;SDS011;23739;51.448;6.674;2023-12-28T04:11:25;5.03;;;1.80;;
37905;SDS011;23739;51.448;6.674;2023-12-28T04:13:51;2.38;;;1.98;;
37905;SDS011;23739;51.448;6.674;2023-12-28T04:16:18;5.20;;;2.08;;
37905;SDS011;23739;51.448;6.674;2023-12-28T04:18:44;4.20;;;2.00;;
37905;SDS011;23739;51.448;6.674;2023-12-28T04:21:10;2.35;;;1.88;;
37905;SDS011;23739;51.448;6.674;2023-12-28T04:23:38;4.18;;;2.17;;
37905;SDS011;23739;51.448;6.674;2023-12-28T04:26:05;5.78;;;2.83;;
37905;SDS011;23739;51.448;6.674;2023-12-28T04:28:31;3.47;;;1.88;;
37905;SDS011;23739;51.448;6.674;2023-12-28T04:31:01;4.65;;;1.98;;
37905;SDS011;23739;51.448;6.674;2023-12-28T04:33:27;2.75;;;2.10;;
37905;SDS011;23739;51.448;6.674;2023-12-28T04:35:53;2.38;;;1.67;;
37905;SDS011;23739;51.448;6.674;2023-12-28T04:38:19;3.80;;;1.77;;
37905;SDS011;23739;51.448;6.674;2023-12-28T04:40:45;3.88;;;1.90;;
37905;SDS011;23739;51.448;6.674;2023-12-28T04:43:11;7.55;;;1.92;;
37905;SDS011;23739;51.448;6.674;2023-12-28T04:45:37;2.92;;;1.92;;
37905;SDS011;23739;51.448;6.674;2023-12-28T04:48:04;2.97;;;2.13;;
37905;SDS011;23739;51.448;6.674;2023-12-28T04:50:30;6.50;;;2.15;;
37905;SDS011;23739;51.448;6.674;2023-12-28T04:52:56;3.75;;;1.60;;
37905;SDS011;23739;51.448;6.674;2023-12-28T04:55:22;3.90;;;1.75;;
37905;SDS011;23739;51.448;6.674;2023-12-28T04:57:49;3.42;;;1.90;;
37905;SDS011;23739;51.448;6.674;2023-12-28T05:00:15;4.03;;;2.28;;
37905;SDS011;23739;51.448;6.674;2023-12-28T05:02:41;4.03;;;1.90;;
37905;SDS011;23739;51.448;6.674;2023-12-28T05:05:07;3.67;;;2.28;;
37905;SDS011;23739;51.448;6.674;2023-12-28T05:07:35;2.38;;;1.58;;
37905;SDS011;23739;51.448;6.674;2023-12-28T05:10:01;4.45;;;1.80;;
37905;SDS011;23739;51.448;6.674;2023-12-28T05:12:27;5.93;;;2.15;;
37905;SDS011;23739;51.448;6.674;2023-12-28T05:14:53;3.50;;;2.13;;
37905;SDS011;23739;51.448;6.674;2023-12-28T05:17:19;2.90;;;1.55;;
37905;SDS011;23739;51.448;6.674;2023-12-28T05:19:45;4.47;;;2.33;;
37905;SDS011;23739;51.448;6.674;2023-12-28T05:22:12;5.90;;;2.30;;
37905;SDS011;23739;51.448;6.674;2023-12-28T05:24:38;1.95;;;1.70;;
37905;SDS011;23739;51.448;6.674;2023-12-28T05:27:04;3.47;;;1.83;;
37905;SDS011;23739;51.448;6.674;2023-12-28T05:29:30;6.10;;;2.42;;
37905;SDS011;23739;51.448;6.674;2023-12-28T05:31:56;3.70;;;1.52;;
37905;SDS011;23739;51.448;6.674;2023-12-28T05:34:22;4.93;;;2.40;;
37905;SDS011;23739;51.448;6.674;2023-12-28T05:36:48;5.72;;;2.42;;
37905;SDS011;23739;51.448;6.674;2023-12-28T05:39:14;4.15;;;1.73;;
37905;SDS011;23739;51.448;6.674;2023-12-28T05:41:40;4.03;;;1.75;;
37905;SDS011;23739;51.448;6.674;2023-12-28T05:44:06;5.65;;;1.77;;
37905;SDS011;23739;51.448;6.674;2023-12-28T05:46:32;5.20;;;1.50;;
37905;SDS011;23739;51.448;6.674;2023-12-28T05:48:58;10.90;;;3.38;;
37905;SDS011;23739;51.448;6.674;2023-12-28T05:51:24;4.85;;;1.55;;
37905;SDS011;23739;51.448;6.674;2023-12-28T05:53:50;5.93;;;1.90;;
37905;SDS011;23739;51.448;6.674;2023-12-28T05:56:17;3.97;;;1.75;;
37905;SDS011;23739;51.448;6.674;2023-12-28T05:58:43;3.50;;;1.70;;
37905;SDS011;23739;51.448;6.674;2023-12-28T06:01:09;3.78;;;1.88;;
37905;SDS011;23739;51.448;6.674;2023-12-28T06:03:35;6.03;;;2.15;;
37905;SDS011;23739;51.448;6.674;2023-12-28T06:06:01;3.33;;;1.95;;
37905;SDS011;23739;51.448;6.674;2023-12-28T06:08:27;3.17;;;1.90;;
37905;SDS011;23739;51.448;6.674;2023-12-28T06:10:53;7.55;;;1.65;;
37905;SDS011;23739;51.448;6.674;2023-12-28T06:13:19;4.10;;;1.67;;
37905;SDS011;23739;51.448;6.674;2023-12-28T06:15:45;4.53;;;1.58;;
37905;SDS011;23739;51.448;6.674;2023-12-28T06:18:11;4.80;;;1.95;;
37905;SDS011;23739;51.448;6.674;2023-12-28T06:20:37;4.80;;;1.80;;
37905;SDS011;23739;51.448;6.674;2023-12-28T06:23:03;5.22;;;1.60;;
37905;SDS011;23739;51.448;6.674;2023-12-28T06:25:29;4.03;;;1.75;;
37905;SDS011;23739;51.448;6.674;2023-12-28T06:27:55;5.47;;;1.65;;
37905;SDS011;23739;51.448;6.674;2023-12-28T06:30:21;5.32;;;1.70;;
37905;SDS011;23739;51.448;6.674;2023-12-28T06:32:48;5.55;;;2.10;;
37905;SDS011;23739;51.448;6.674;2023-12-28T06:35:14;3.90;;;1.58;;
37905;SDS011;23739;51.448;6.674;2023-12-28T06:37:41;5.72;;;1.88;;
37905;SDS011;23739;51.448;6.674;2023-12-28T06:40:08;3.88;;;1.73;;
37905;SDS011;23739;51.448;6.674;2023-12-28T06:42:34;5.80;;;1.30;;
37905;SDS011;23739;51.448;6.674;2023-12-28T06:45:00;5.30;;;1.77;;
37905;SDS011;23739;51.448;6.674;2023-12-28T06:47:26;5.07;;;1.73;;
37905;SDS011;23739;51.448;6.674;2023-12-28T06:49:52;3.25;;;2.20;;
37905;SDS011;23739;51.448;6.674;2023-12-28T06:52:18;6.85;;;2.05;;
37905;SDS011;23739;51.448;6.674;2023-12-28T06:54:44;4.63;;;1.50;;
37905;SDS011;23739;51.448;6.674;2023-12-28T06:57:10;8.90;;;1.70;;
37905;SDS011;23739;51.448;6.674;2023-12-28T06:59:36;7.95;;;1.60;;
37905;SDS011;23739;51.448;6.674;2023-12-28T07:02:02;6.15;;;2.08;;
37905;SDS011;23739;51.448;6.674;2023-12-28T07:04:28;5.75;;;2.03;;
37905;SDS011;23739;51.448;6.674;2023-12-28T07:06:55;7.68;;;2.17;;
37905;SDS011;23739;51.448;6.674;2023-12-28T07:09:21;4.47;;;1.58;;
37905;SDS011;23739;51.448;6.674;2023-12-28T07:11:47;6.97;;;2.13;;
37905;SDS011;23739;51.448;6.674;2023-12-28T07:14:13;6.45;;;2.28;;
37905;SDS011;23739;51.448;6.674;2023-12-28T07:16:39;4.80;;;1.83;;
37905;SDS011;23739;51.448;6.674;2023-12-28T07:19:05;8.23;;;2.15;;
37905;SDS011;23739;51.448;6.674;2023-12-28T07:21:31;12.00;;;2.08;;
37905;SDS011;23739;51.448;6.674;2023-12-28T07:23:57;7.00;;;1.80;;
37905;SDS011;23739;51.448;6.674;2023-12-28T07:26:23;3.55;;;1.75;;
37905;SDS011;23739;51.448;6.674;2023-12-28T07:28:49;4.85;;;1.70;;
37905;SDS011;23739;51.448;6.674;2023-12-28T07:31:25;8.48;;;2.03;;
37905;SDS011;23739;51.448;6.674;2023-12-28T07:33:51;8.32;;;2.30;;
37905;SDS011;23739;51.448;6.674;2023-12-28T07:36:17;6.95;;;1.70;;
37905;SDS011;23739;51.448;6.674;2023-12-28T07:38:43;4.10;;;1.77;;
37905;SDS011;23739;51.448;6.674;2023-12-28T07:41:09;6.43;;;1.98;;
37905;SDS011;23739;51.448;6.674;2023-12-28T07:43:36;11.50;;;2.58;;
37905;SDS011;23739;51.448;6.674;2023-12-28T07:46:02;10.23;;;2.00;;
37905;SDS011;23739;51.448;6.674;2023-12-28T07:48:28;7.57;;;1.50;;
37905;SDS011;23739;51.448;6.674;2023-12-28T07:50:56;8.95;;;2.78;;
37905;SDS011;23739;51.448;6.674;2023-12-28T07:53:22;7.30;;;1.95;;
37905;SDS011;23739;51.448;6.674;2023-12-28T07:55:48;9.15;;;2.10;;
37905;SDS011;23739;51.448;6.674;2023-12-28T07:58:14;9.20;;;2.45;;
37905;SDS011;23739;51.448;6.674;2023-12-28T08:00:41;7.07;;;1.73;;
37905;SDS011;23739;51.448;6.674;2023-12-28T08:03:07;17.85;;;2.15;;
37905;SDS011;23739;51.448;6.674;2023-12-28T08:05:33;7.97;;;2.00;;
37905;SDS011;23739;51.448;6.674;2023-12-28T08:07:59;8.40;;;1.92;;
37905;SDS011;23739;51.448;6.674;2023-12-28T08:10:25;7.20;;;1.55;;
37905;SDS011;23739;51.448;6.674;2023-12-28T08:12:51;12.82;;;2.40;;
37905;SDS011;23739;51.448;6.674;2023-12-28T08:15:17;6.22;;;1.65;;
37905;SDS011;23739;51.448;6.674;2023-12-28T08:17:43;9.02;;;1.70;;
37905;SDS011;23739;51.448;6.674;2023-12-28T08:20:09;8.73;;;2.55;;
37905;SDS011;23739;51.448;6.674;2023-12-28T08:22:35;10.38;;;2.88;;
37905;SDS011;23739;51.448;6.674;2023-12-28T08:25:01;8.40;;;2.13;;
37905;SDS011;23739;51.448;6.674;2023-12-28T08:27:28;7.57;;;1.77;;
37905;SDS011;23739;51.448;6.674;2023-12-28T08:29:54;8.10;;;2.25;;
37905;SDS011;23739;51.448;6.674;2023-12-28T08:32:20;11.35;;;3.13;;
37905;SDS011;23739;51.448;6.674;2023-12-28T08:34:46;7.30;;;2.17;;
37905;SDS011;23739;51.448;6.674;2023-12-28T08:37:13;9.68;;;1.83;;
37905;SDS011;23739;51.448;6.674;2023-12-28T08:39:39;8.00;;;2.40;;
37905;SDS011;23739;51.448;6.674;2023-12-28T08:42:05;9.38;;;2.55;;
37905;SDS011;23739;51.448;6.674;2023-12-28T08:44:31;7.65;;;2.70;;
37905;SDS011;23739;51.448;6.674;2023-12-28T08:46:59;8.45;;;2.58;;
37905;SDS011;23739;51.448;6.674;2023-12-28T08:49:25;7.47;;;2.13;;
37905;SDS011;23739;51.448;6.674;2023-12-28T08:51:51;15.70;;;2.65;;
37905;SDS011;23739;51.448;6.674;2023-12-28T08:54:17;14.73;;;2.35;;
37905;SDS011;23739;51.448;6.674;2023-12-28T08:56:43;7.55;;;1.58;;
37905;SDS011;23739;51.448;6.674;2023-12-28T08:59:09;8.75;;;2.30;;
37905;SDS011;23739;51.448;6.674;2023-12-28T09:01:35;9.07;;;2.38;;
37905;SDS011;23739;51.448;6.674;2023-12-28T09:04:02;8.35;;;3.22;;
37905;SDS011;23739;51.448;6.674;2023-12-28T09:06:28;9.63;;;2.20;;
37905;SDS011;23739;51.448;6.674;2023-12-28T09:08:54;15.75;;;2.95;;
37905;SDS011;23739;51.448;6.674;2023-12-28T09:11:20;7.20;;;1.55;;
37905;SDS011;23739;51.448;6.674;2023-12-28T09:13:46;7.25;;;1.55;;
37905;SDS011;23739;51.448;6.674;2023-12-28T09:16:13;13.60;;;1.92;;
37905;SDS011;23739;51.448;6.674;2023-12-28T09:18:40;12.55;;;2.60;;
37905;SDS011;23739;51.448;6.674;2023-12-28T09:21:06;11.25;;;2.10;;
37905;SDS011;23739;51.448;6.674;2023-12-28T09:23:33;15.27;;;2.65;;
37905;SDS011;23739;51.448;6.674;2023-12-28T09:26:00;6.53;;;2.20;;
37905;SDS011;23739;51.448;6.674;2023-12-28T09:28:26;11.93;;;2.78;;
37905;SDS011;23739;51.448;6.674;2023-12-28T09:30:52;12.40;;;3.40;;
37905;SDS011;23739;51.448;6.674;2023-12-28T09:33:18;11.25;;;3.13;;
37905;SDS011;23739;51.448;6.674;2023-12-28T09:35:44;8.07;;;3.25;;
37905;SDS011;23739;51.448;6.674;2023-12-28T09:38:10;11.65;;;2.20;;
37905;SDS011;23739;51.448;6.674;2023-12-28T09:40:36;12.13;;;3.03;;
37905;SDS011;23739;51.448;6.674;2023-12-28T09:45:48;7.38;;;2.30;;
37905;SDS011;23739;51.448;6.674;2023-12-28T09:48:18;7.82;;;2.25;;
37905;SDS011;23739;51.448;6.674;2023-12-28T09:50:45;8.13;;;1.95;;
37905;SDS011;23739;51.448;6.674;2023-12-28T09:53:12;8.25;;;1.83;;
37905;SDS011;23739;51.448;6.674;2023-12-28T09:55:38;10.07;;;2.83;;
37905;SDS011;23739;51.448;6.674;2023-12-28T09:58:04;8.85;;;2.25;;
37905;SDS011;23739;51.448;6.674;2023-12-28T10:00:31;9.88;;;2.08;;
37905;SDS011;23739;51.448;6.674;2023-12-28T10:02:57;7.55;;;3.20;;
37905;SDS011;23739;51.448;6.674;2023-12-28T10:05:24;16.77;;;3.60;;
37905;SDS011;23739;51.448;6.674;2023-12-28T10:07:50;16.02;;;2.25;;
37905;SDS011;23739;51.448;6.674;2023-12-28T10:10:16;11.18;;;2.30;;
37905;SDS011;23739;51.448;6.674;2023-12-28T10:12:43;10.93;;;2.67;;
37905;SDS011;23739;51.448;6.674;2023-12-28T10:15:09;14.82;;;2.28;;
37905;SDS011;23739;51.448;6.674;2023-12-28T10:17:35;10.85;;;3.42;;
37905;SDS011;23739;51.448;6.674;2023-12-28T10:20:02;8.07;;;2.13;;
37905;SDS011;23739;51.448;6.674;2023-12-28T10:22:30;9.90;;;2.13;;
37905;SDS011;23739;51.448;6.674;2023-12-28T10:24:57;9.30;;;1.95;;
37905;SDS011;23739;51.448;6.674;2023-12-28T10:27:24;11.63;;;2.10;;
37905;SDS011;23739;51.448;6.674;2023-12-28T10:29:52;10.45;;;2.03;;
37905;SDS011;23739;51.448;6.674;2023-12-28T10:32:19;8.57;;;1.67;;
37905;SDS011;23739;51.448;6.674;2023-12-28T10:34:45;6.45;;;1.58;;
37905;SDS011;23739;51.448;6.674;2023-12-28T10:37:11;14.63;;;2.53;;
37905;SDS011;23739;51.448;6.674;2023-12-28T10:39:37;6.63;;;3.50;;
37905;SDS011;23739;51.448;6.674;2023-12-28T10:42:05;11.43;;;2.03;;
37905;SDS011;23739;51.448;6.674;2023-12-28T10:44:35;8.30;;;2.65;;
37905;SDS011;23739;51.448;6.674;2023-12-28T10:47:02;5.82;;;1.65;;
37905;SDS011;23739;51.448;6.674;2023-12-28T10:49:30;10.93;;;3.15;;
37905;SDS011;23739;51.448;6.674;2023-12-28T10:51:59;10.02;;;1.98;;
37905;SDS011;23739;51.448;6.674;2023-12-28T10:54:37;10.88;;;2.35;;
37905;SDS011;23739;51.448;6.674;2023-12-28T10:57:09;6.78;;;1.75;;
37905;SDS011;23739;51.448;6.674;2023-12-28T11:02:06;11.00;;;2.10;;
37905;SDS011;23739;51.448;6.674;2023-12-28T11:05:06;11.25;;;2.25;;
37905;SDS011;23739;51.448;6.674;2023-12-28T11:07:25;7.47;;;2.22;;
37905;SDS011;23739;51.448;6.674;2023-12-28T11:09:57;7.20;;;2.22;;
37905;SDS011;23739;51.448;6.674;2023-12-28T11:12:25;8.35;;;2.03;;
37905;SDS011;23739;51.448;6.674;2023-12-28T11:14:51;9.85;;;1.95;;
37905;SDS011;23739;51.448;6.674;2023-12-28T11:17:18;10.27;;;1.88;;
37905;SDS011;23739;51.448;6.674;2023-12-28T11:19:44;10.65;;;2.30;;
37905;SDS011;23739;51.448;6.674;2023-12-28T11:22:11;7.00;;;1.90;;
37905;SDS011;23739;51.448;6.674;2023-12-28T11:24:38;10.40;;;2.50;;
37905;SDS011;23739;51.448;6.674;2023-12-28T11:27:05;8.60;;;1.98;;
37905;SDS011;23739;51.448;6.674;2023-12-28T11:29:31;6.60;;;2.45;;
37905;SDS011;23739;51.448;6.674;2023-12-28T11:31:58;12.70;;;2.65;;
37905;SDS011;23739;51.448;6.674;2023-12-28T11:34:24;9.48;;;2.13;;
37905;SDS011;23739;51.448;6.674;2023-12-28T11:36:51;6.47;;;2.13;;
37905;SDS011;23739;51.448;6.674;2023-12-28T11:39:20;10.40;;;1.90;;
37905;SDS011;23739;51.448;6.674;2023-12-28T11:44:18;10.65;;;2.20;;
37905;SDS011;23739;51.448;6.674;2023-12-28T11:46:43;8.70;;;1.63;;
37905;SDS011;23739;51.448;6.674;2023-12-28T11:49:10;7.95;;;1.92;;
37905;SDS011;23739;51.448;6.674;2023-12-28T11:51:39;8.38;;;2.15;;
37905;SDS011;23739;51.448;6.674;2023-12-28T11:54:05;8.15;;;2.20;;
37905;SDS011;23739;51.448;6.674;2023-12-28T11:56:32;7.03;;;2.47;;
37905;SDS011;23739;51.448;6.674;2023-12-28T11:58:58;6.72;;;1.45;;
37905;SDS011;23739;51.448;6.674;2023-12-28T12:01:24;9.57;;;1.83;;
37905;SDS011;23739;51.448;6.674;2023-12-28T12:03:50;11.50;;;2.45;;
37905;SDS011;23739;51.448;6.674;2023-12-28T12:06:16;11.45;;;2.25;;
37905;SDS011;23739;51.448;6.674;2023-12-28T12:08:46;8.63;;;2.42;;
37905;SDS011;23739;51.448;6.674;2023-12-28T12:11:12;11.38;;;2.72;;
37905;SDS011;23739;51.448;6.674;2023-12-28T12:13:38;9.07;;;2.90;;
37905;SDS011;23739;51.448;6.674;2023-12-28T12:16:05;10.98;;;2.28;;
37905;SDS011;23739;51.448;6.674;2023-12-28T12:18:34;7.53;;;1.65;;
37905;SDS011;23739;51.448;6.674;2023-12-28T12:21:01;7.40;;;2.25;;
37905;SDS011;23739;51.448;6.674;2023-12-28T12:23:28;12.07;;;2.22;;
37905;SDS011;23739;51.448;6.674;2023-12-28T12:25:54;9.95;;;2.38;;
37905;SDS011;23739;51.448;6.674;2023-12-28T12:28:20;7.38;;;2.08;;
37905;SDS011;23739;51.448;6.674;2023-12-28T12:31:04;11.23;;;2.45;;
37905;SDS011;23739;51.448;6.674;2023-12-28T12:33:30;6.32;;;1.80;;
37905;SDS011;23739;51.448;6.674;2023-12-28T12:35:56;10.73;;;2.50;;
37905;SDS011;23739;51.448;6.674;2023-12-28T12:38:23;11.98;;;2.72;;
37905;SDS011;23739;51.448;6.674;2023-12-28T12:40:50;11.85;;;3.25;;
37905;SDS011;23739;51.448;6.674;2023-12-28T12:43:16;12.90;;;3.17;;
37905;SDS011;23739;51.448;6.674;2023-12-28T12:45:44;15.27;;;2.92;;
37905;SDS011;23739;51.448;6.674;2023-12-28T12:48:11;9.90;;;2.17;;
37905;SDS011;23739;51.448;6.674;2023-12-28T12:50:37;12.57;;;2.47;;
37905;SDS011;23739;51.448;6.674;2023-12-28T12:53:06;13.35;;;2.80;;
37905;SDS011;23739;51.448;6.674;2023-12-28T12:55:32;10.02;;;1.98;;
37905;SDS011;23739;51.448;6.674;2023-12-28T12:57:58;9.50;;;2.38;;
37905;SDS011;23739;51.448;6.674;2023-12-28T13:00:24;9.77;;;2.40;;
37905;SDS011;23739;51.448;6.674;2023-12-28T13:02:50;9.32;;;1.95;;
37905;SDS011;23739;51.448;6.674;2023-12-28T13:05:18;10.48;;;2.00;;
37905;SDS011;23739;51.448;6.674;2023-12-28T13:07:44;16.55;;;2.90;;
37905;SDS011;23739;51.448;6.674;2023-12-28T13:10:10;10.02;;;1.75;;
37905;SDS011;23739;51.448;6.674;2023-12-28T13:12:36;6.90;;;2.40;;
37905;SDS011;23739;51.448;6.674;2023-12-28T13:15:03;12.48;;;2.78;;
37905;SDS011;23739;51.448;6.674;2023-12-28T13:17:29;9.90;;;2.05;;
37905;SDS011;23739;51.448;6.674;2023-12-28T13:19:56;7.55;;;3.00;;
37905;SDS011;23739;51.448;6.674;2023-12-28T13:22:23;8.10;;;2.28;;
37905;SDS011;23739;51.448;6.674;2023-12-28T13:24:49;17.75;;;2.63;;
37905;SDS011;23739;51.448;6.674;2023-12-28T13:27:15;8.20;;;2.80;;
37905;SDS011;23739;51.448;6.674;2023-12-28T13:29:41;11.65;;;2.10;;
37905;SDS011;23739;51.448;6.674;2023-12-28T13:32:09;8.90;;;2.22;;
37905;SDS011;23739;51.448;6.674;2023-12-28T13:34:35;13.60;;;2.45;;
37905;SDS011;23739;51.448;6.674;2023-12-28T13:37:01;6.57;;;1.70;;
37905;SDS011;23739;51.448;6.674;2023-12-28T13:39:28;11.05;;;1.92;;
37905;SDS011;23739;51.448;6.674;2023-12-28T13:41:54;11.27;;;2.63;;
37905;SDS011;23739;51.448;6.674;2023-12-28T13:44:20;10.68;;;2.75;;
37905;SDS011;23739;51.448;6.674;2023-12-28T13:46:46;10.77;;;1.83;;
37905;SDS011;23739;51.448;6.674;2023-12-28T13:49:14;9.40;;;2.22;;
37905;SDS011;23739;51.448;6.674;2023-12-28T13:51:40;8.52;;;1.92;;
37905;SDS011;23739;51.448;6.674;2023-12-28T13:54:06;5.93;;;1.75;;
37905;SDS011;23739;51.448;6.674;2023-12-28T13:56:32;8.70;;;2.05;;
37905;SDS011;23739;51.448;6.674;2023-12-28T13:58:58;9.75;;;2.40;;
37905;SDS011;23739;51.448;6.674;2023-12-28T14:01:24;8.13;;;1.85;;
37905;SDS011;23739;51.448;6.674;2023-12-28T14:03:51;11.88;;;2.08;;
37905;SDS011;23739;51.448;6.674;2023-12-28T14:06:17;8.50;;;1.80;;
37905;SDS011;23739;51.448;6.674;2023-12-28T14:08:44;10.55;;;3.08;;
37905;SDS011;23739;51.448;6.674;2023-12-28T14:11:10;11.30;;;2.58;;
37905;SDS011;23739;51.448;6.674;2023-12-28T14:13:36;7.10;;;2.03;;
37905;SDS011;23739;51.448;6.674;2023-12-28T14:16:03;8.77;;;1.92;;
37905;SDS011;23739;51.448;6.674;2023-12-28T14:18:29;10.45;;;1.90;;
37905;SDS011;23739;51.448;6.674;2023-12-28T14:20:55;6.68;;;2.22;;
37905;SDS011;23739;51.448;6.674;2023-12-28T14:23:21;9.73;;;2.80;;
37905;SDS011;23739;51.448;6.674;2023-12-28T14:25:47;8.80;;;2.22;;
37905;SDS011;23739;51.448;6.674;2023-12-28T14:28:20;11.68;;;2.70;;
37905;SDS011;23739;51.448;6.674;2023-12-28T14:30:46;5.45;;;2.20;;
37905;SDS011;23739;51.448;6.674;2023-12-28T14:33:12;8.65;;;2.35;;
37905;SDS011;23739;51.448;6.674;2023-12-28T14:35:38;8.82;;;1.50;;
37905;SDS011;23739;51.448;6.674;2023-12-28T14:38:05;11.50;;;2.03;;
37905;SDS011;23739;51.448;6.674;2023-12-28T14:40:33;7.38;;;2.70;;
37905;SDS011;23739;51.448;6.674;2023-12-28T14:42:59;18.33;;;2.25;;
37905;SDS011;23739;51.448;6.674;2023-12-28T14:45:25;9.50;;;1.98;;
37905;SDS011;23739;51.448;6.674;2023-12-28T14:47:51;12.80;;;2.88;;
37905;SDS011;23739;51.448;6.674;2023-12-28T14:50:17;12.13;;;2.22;;